Time;durP1;ratioP1;P1;durP2;ratioP2;P2;SDS_P1;SDS_P2;PMS_P1;PMS_P2;Temp;Humidity;BMP_temperature;BMP_pressure;BME280_temperature;BME280_humidity;BME280_pressure;Samples;Min_cycle;Max_cycle;Signal;HPM_P1;HPM_P2
2022/04/15 00:00:39;;;;;;;2.65;1.10;;;;;;;26.84;30.25;97126.19;4924393;28;20038;-31
2022/04/15 00:03:07;;;;;;;2.00;1.30;;;;;;;26.84;30.33;97122.72;4920053;28;20111;-35
2022/04/15 00:05:36;;;;;;;2.40;1.40;;;;;;;26.84;30.29;97120.94;4921504;28;20033;-31
2022/04/15 00:08:09;;;;;;;2.40;1.40;;;;;;;26.85;30.36;97127.88;4921793;28;20529;-30
2022/04/15 00:10:35;;;;;;;2.88;1.02;;;;;;;26.86;30.25;97129.59;4922892;28;21060;-31
2022/04/15 00:13:01;;;;;;;1.73;1.10;;;;;;;26.87;30.24;97127.81;4921847;28;20032;-32
2022/04/15 00:15:28;;;;;;;1.17;1.02;;;;;;;26.87;30.25;97120.78;4924735;28;20054;-31
2022/04/15 00:17:53;;;;;;;2.50;1.10;;;;;;;26.87;30.29;97126.06;4921293;28;20039;-32
2022/04/15 00:20:19;;;;;;;2.03;1.38;;;;;;;26.87;30.32;97126.06;4923836;28;20661;-30
2022/04/15 00:22:44;;;;;;;3.83;1.10;;;;;;;26.88;30.34;97127.75;4922541;28;20082;-32
2022/04/15 00:25:10;;;;;;;2.10;1.05;;;;;;;26.90;30.36;97129.44;4922027;28;20800;-29
2022/04/15 00:27:36;;;;;;;1.35;1.10;;;;;;;26.91;30.17;97131.13;4938683;28;20027;-32
2022/04/15 00:30:06;;;;;;;3.30;1.15;;;;;;;26.90;30.38;97130.28;4920253;28;20034;-29
2022/04/15 00:32:31;;;;;;;1.40;0.98;;;;;;;26.91;30.23;97123.22;4919705;28;20109;-31
2022/04/15 00:34:57;;;;;;;2.53;1.17;;;;;;;26.92;30.29;97122.34;4922141;28;20057;-34
2022/04/15 00:37:23;;;;;;;3.30;1.02;;;;;;;26.91;30.27;97131.13;4925471;28;20031;-29
2022/04/15 00:39:49;;;;;;;1.00;0.82;;;;;;;26.92;30.24;97127.59;4917957;28;20036;-34
2022/04/15 00:42:14;;;;;;;1.77;0.85;;;;;;;26.92;30.24;97132.84;4923274;28;20059;-31
2022/04/15 00:44:40;;;;;;;2.38;1.15;;;;;;;26.92;30.34;97131.06;4914612;28;20078;-37
2022/04/15 00:47:27;;;;;;;1.73;1.08;;;;;;;26.93;30.40;97129.28;4880976;28;21689;-33
2022/04/15 00:49:53;;;;;;;4.70;1.08;;;;;;;26.92;30.30;97132.84;4883729;28;21102;-32
2022/04/15 00:52:18;;;;;;;5.10;0.90;;;;;;;26.93;30.29;97129.28;4883727;28;20048;-37
2022/04/15 00:54:44;;;;;;;1.65;0.95;;;;;;;26.93;30.22;97126.66;4872919;28;20034;-33
2022/04/15 00:57:09;;;;;;;1.48;0.77;;;;;;;26.93;30.30;97129.28;4877090;28;20043;-36
2022/04/15 00:59:35;;;;;;;1.42;1.00;;;;;;;26.93;30.29;97132.75;4882588;28;20970;-34
2022/04/15 01:02:00;;;;;;;1.27;0.90;;;;;;;26.94;30.29;97138.88;4895892;28;21032;-30
2022/04/15 01:04:26;;;;;;;2.70;0.98;;;;;;;26.95;30.38;97135.31;4884942;28;20038;-35
2022/04/15 01:06:51;;;;;;;2.75;0.95;;;;;;;26.95;30.24;97137.97;4880672;28;20034;-37
2022/04/15 01:09:17;;;;;;;1.55;0.80;;;;;;;26.94;30.23;97137.13;4894282;28;20034;-30
2022/04/15 01:11:42;;;;;;;1.77;0.90;;;;;;;26.94;30.35;97136.22;4868497;28;20552;-30
2022/04/15 01:14:08;;;;;;;0.63;0.63;;;;;;;26.95;30.30;97137.97;4880650;28;20035;-31
2022/04/15 01:16:34;;;;;;;2.13;1.00;;;;;;;26.94;30.41;97133.59;4896573;28;20759;-35
2022/04/15 01:18:59;;;;;;;1.10;0.80;;;;;;;26.96;30.39;97137.06;4885701;28;20051;-32
2022/04/15 01:21:25;;;;;;;4.15;1.50;;;;;;;26.96;30.45;97131.78;4890397;28;20046;-33
2022/04/15 01:23:51;;;;;;;4.82;1.40;;;;;;;26.96;30.59;97137.06;4886927;28;20524;-31
2022/04/15 01:26:17;;;;;;;3.03;1.23;;;;;;;26.96;30.42;97134.41;4888254;28;20027;-36
2022/04/15 01:28:43;;;;;;;1.77;1.23;;;;;;;26.97;30.50;97146.63;4889994;28;20142;-31
2022/04/15 01:31:08;;;;;;;5.00;1.20;;;;;;;26.97;30.50;97138.75;4886740;28;20039;-35
2022/04/15 01:33:34;;;;;;;1.35;0.95;;;;;;;26.97;30.46;97136.13;4889744;28;20823;-32
2022/04/15 01:35:59;;;;;;;1.92;1.00;;;;;;;26.98;30.51;97137.81;4889148;28;20031;-30
2022/04/15 01:38:24;;;;;;;1.35;0.70;;;;;;;26.98;30.36;97145.69;4890175;28;20832;-32
2022/04/15 01:40:52;;;;;;;1.73;0.88;;;;;;;26.98;30.30;97143.06;4891279;28;20036;-33
2022/04/15 01:43:17;;;;;;;1.33;0.95;;;;;;;26.97;30.39;97147.47;4892904;28;20035;-37
2022/04/15 01:45:43;;;;;;;0.80;0.80;;;;;;;26.98;30.43;97148.31;4914380;28;20038;-31
2022/04/15 01:48:08;;;;;;;3.25;0.80;;;;;;;26.98;30.61;97143.06;4928820;28;20423;-31
2022/04/15 01:50:34;;;;;;;1.23;0.80;;;;;;;26.98;30.47;97145.69;4924086;28;20019;-31
2022/04/15 01:52:59;;;;;;;3.75;0.85;;;;;;;26.98;30.46;97149.19;4921046;28;21979;-30
2022/04/15 01:55:25;;;;;;;2.03;0.85;;;;;;;26.98;30.44;97140.44;4922863;28;20024;-30
2022/04/15 01:57:50;;;;;;;2.03;0.93;;;;;;;26.98;30.44;97143.06;4928776;28;20043;-33
2022/04/15 02:00:16;;;;;;;1.25;0.70;;;;;;;26.98;30.36;97148.31;4925997;28;20599;-31
2022/04/15 02:02:41;;;;;;;2.88;0.75;;;;;;;27.00;30.35;97151.72;4924888;28;20569;-30
2022/04/15 02:05:07;;;;;;;1.23;0.80;;;;;;;26.99;30.46;97150.03;4925151;28;20031;-36
2022/04/15 02:07:32;;;;;;;1.20;0.75;;;;;;;26.98;30.27;97153.59;4928098;28;20023;-30
2022/04/15 02:09:58;;;;;;;1.45;0.90;;;;;;;26.98;30.49;97148.31;4927833;28;20054;-30
2022/04/15 02:12:23;;;;;;;1.05;0.65;;;;;;;26.99;30.32;97147.38;4925690;28;20027;-29
2022/04/15 02:14:48;;;;;;;1.45;0.98;;;;;;;26.99;30.49;97144.75;4927247;28;20031;-31
2022/04/15 02:17:14;;;;;;;1.65;0.80;;;;;;;27.00;30.72;97151.72;4924778;28;20031;-31
2022/04/15 02:19:39;;;;;;;1.10;0.73;;;;;;;26.99;30.72;97155.28;4928448;28;20036;-31
2022/04/15 02:22:05;;;;;;;1.33;0.80;;;;;;;26.98;30.47;97154.44;4928775;28;20062;-31
2022/04/15 02:24:30;;;;;;;0.88;0.70;;;;;;;26.99;30.40;97155.28;4926101;28;20047;-29
2022/04/15 02:26:56;;;;;;;1.88;0.70;;;;;;;26.98;30.43;97154.44;4925832;28;20090;-35
2022/04/15 02:29:22;;;;;;;0.90;0.60;;;;;;;26.98;30.53;97154.44;4926259;28;20047;-30
2022/04/15 02:31:47;;;;;;;3.08;0.57;;;;;;;26.98;30.47;97156.22;4926961;28;20037;-34
2022/04/15 02:34:13;;;;;;;2.22;0.75;;;;;;;26.99;30.47;97161.41;4925472;28;23650;-30
2022/04/15 02:36:38;;;;;;;2.03;0.93;;;;;;;27.00;30.53;97167.50;4926521;28;20089;-29
2022/04/15 02:39:04;;;;;;;1.00;0.85;;;;;;;26.98;30.50;97159.72;4924152;28;20028;-29
2022/04/15 02:41:30;;;;;;;1.25;0.80;;;;;;;26.99;30.43;97161.41;4925711;28;20121;-33
2022/04/15 02:43:55;;;;;;;1.40;0.80;;;;;;;27.00;30.48;97162.22;4927422;28;20042;-30
2022/04/15 02:46:21;;;;;;;0.98;0.52;;;;;;;27.00;30.42;97156.97;4921506;28;20028;-35
2022/04/15 02:48:46;;;;;;;1.00;0.63;;;;;;;26.99;30.37;97157.91;4922490;28;20043;-32
2022/04/15 02:51:14;;;;;;;0.73;0.60;;;;;;;27.00;30.57;97163.09;4923114;28;20039;-34
2022/04/15 02:53:39;;;;;;;1.75;0.68;;;;;;;27.00;30.46;97151.72;4926227;28;20030;-29
2022/04/15 02:56:05;;;;;;;1.63;0.40;;;;;;;27.00;30.42;97152.56;4924558;28;20031;-34
2022/04/15 02:58:30;;;;;;;1.25;0.90;;;;;;;26.97;30.31;97151.91;4925709;28;20115;-30
2022/04/15 03:00:55;;;;;;;0.95;0.70;;;;;;;26.99;30.38;97155.28;4923877;28;20138;-33
2022/04/15 03:03:21;;;;;;;0.65;0.63;;;;;;;26.99;30.52;97156.13;4925816;28;20036;-34
2022/04/15 03:05:46;;;;;;;1.10;0.70;;;;;;;27.00;30.47;97156.97;4925104;28;20770;-32
2022/04/15 03:08:12;;;;;;;0.73;0.60;;;;;;;27.00;30.48;97156.97;4919770;28;20031;-31
2022/04/15 03:10:37;;;;;;;0.52;0.50;;;;;;;27.01;30.60;97153.44;4924559;28;20034;-30
2022/04/15 03:13:02;;;;;;;1.33;0.63;;;;;;;27.01;30.59;97163.97;4925423;28;20494;-34
2022/04/15 03:15:28;;;;;;;0.75;0.50;;;;;;;27.01;30.48;97156.06;4922187;28;20046;-29
2022/04/15 03:17:53;;;;;;;0.52;0.52;;;;;;;27.01;30.49;97161.31;4921636;28;20038;-30
2022/04/15 03:20:18;;;;;;;1.27;0.52;;;;;;;27.01;30.36;97148.19;4922723;28;20039;-30
2022/04/15 03:22:44;;;;;;;0.68;0.65;;;;;;;27.02;30.50;97159.53;4938156;28;20099;-28
2022/04/15 03:25:11;;;;;;;0.93;0.40;;;;;;;27.00;30.45;97152.56;4924795;28;20059;-32
2022/04/15 03:27:37;;;;;;;0.82;0.68;;;;;;;27.01;30.33;97153.44;4926414;28;21103;-39
2022/04/15 03:30:03;;;;;;;1.35;0.68;;;;;;;27.00;30.47;97156.97;4937346;28;20035;-30
2022/04/15 03:32:29;;;;;;;0.68;0.50;;;;;;;27.00;30.58;97152.56;4936524;28;20027;-30
2022/04/15 03:34:54;;;;;;;0.50;0.50;;;;;;;27.01;30.44;97150.81;4924884;28;20046;-30
2022/04/15 03:37:20;;;;;;;0.90;0.73;;;;;;;27.00;30.57;97157.84;4924685;28;20027;-31
2022/04/15 03:39:45;;;;;;;1.73;0.47;;;;;;;27.00;30.52;97154.34;4924188;28;20035;-33
2022/04/15 03:42:11;;;;;;;0.75;0.68;;;;;;;27.00;30.47;97159.59;4925147;28;20031;-33
2022/04/15 03:44:36;;;;;;;2.58;0.70;;;;;;;27.01;30.55;97158.69;4920733;28;20115;-31
2022/04/15 03:47:05;;;;;;;0.68;0.60;;;;;;;27.01;30.49;97153.44;4924738;28;20067;-30
2022/04/15 03:49:30;;;;;;;1.17;0.55;;;;;;;26.99;30.48;97156.13;4923390;28;20027;-34
2022/04/15 03:51:56;;;;;;;1.08;0.40;;;;;;;27.02;30.48;97159.53;4923216;28;20126;-32
2022/04/15 03:54:21;;;;;;;1.15;0.52;;;;;;;27.01;30.50;97161.31;4924198;28;20039;-31
2022/04/15 03:56:46;;;;;;;0.47;0.45;;;;;;;27.02;30.44;97159.53;4925371;28;20972;-32
2022/04/15 03:59:13;;;;;;;0.65;0.60;;;;;;;27.00;30.44;97160.47;4924689;28;20056;-36
2022/04/15 04:01:38;;;;;;;3.35;0.63;;;;;;;27.01;30.62;97163.97;4928833;28;20103;-32
2022/04/15 04:04:04;;;;;;;1.10;0.70;;;;;;;27.00;30.41;97162.22;4925304;28;20158;-37
2022/04/15 04:06:29;;;;;;;0.60;0.60;;;;;;;27.01;30.52;97166.59;4920971;28;20039;-33
2022/04/15 04:08:54;;;;;;;1.58;0.50;;;;;;;27.01;30.50;97169.22;4924706;28;20159;-32
2022/04/15 04:11:21;;;;;;;1.80;0.98;;;;;;;27.01;30.64;97163.97;4925253;28;20043;-32
2022/04/15 04:13:46;;;;;;;1.65;0.95;;;;;;;27.01;30.78;97166.59;4924557;28;20030;-31
2022/04/15 04:16:12;;;;;;;1.45;0.73;;;;;;;27.02;30.67;97159.53;4927527;28;20038;-34
2022/04/15 04:18:40;;;;;;;1.10;0.70;;;;;;;27.01;30.64;97163.97;4924952;28;20027;-31
2022/04/15 04:21:06;;;;;;;0.60;0.50;;;;;;;27.01;30.66;97161.31;4921312;28;20496;-37
2022/04/15 04:23:31;;;;;;;0.85;0.70;;;;;;;27.01;30.68;97166.59;4924439;28;20038;-36
2022/04/15 04:25:57;;;;;;;0.68;0.50;;;;;;;27.02;30.66;97170.03;4922243;28;20031;-30
2022/04/15 04:28:22;;;;;;;1.10;0.65;;;;;;;27.02;30.65;97165.66;4924780;28;20019;-33
2022/04/15 04:30:47;;;;;;;0.80;0.60;;;;;;;27.02;30.62;97173.53;4922932;28;20449;-37
2022/04/15 04:33:13;;;;;;;1.15;0.50;;;;;;;27.02;30.68;97172.69;4923680;28;20479;-34
2022/04/15 04:35:38;;;;;;;0.57;0.50;;;;;;;27.01;30.68;97174.47;4928205;28;20031;-32
2022/04/15 04:38:05;;;;;;;1.15;0.70;;;;;;;27.02;30.50;97188.47;4924855;28;20628;-34
2022/04/15 04:40:31;;;;;;;0.75;0.70;;;;;;;27.02;30.69;97189.31;4923189;28;20031;-31
2022/04/15 04:42:57;;;;;;;0.75;0.63;;;;;;;27.02;30.54;97191.94;4924631;28;20035;-30
2022/04/15 04:45:23;;;;;;;1.00;0.60;;;;;;;27.01;30.61;97195.53;4924729;28;20046;-35
2022/04/15 04:47:48;;;;;;;1.10;0.50;;;;;;;27.01;30.71;97190.25;4902076;28;20050;-30
2022/04/15 04:50:13;;;;;;;0.50;0.50;;;;;;;27.01;30.70;97190.25;4921737;28;20030;-30
2022/04/15 04:52:39;;;;;;;0.60;0.60;;;;;;;27.01;30.52;97195.53;4927491;28;20027;-30
2022/04/15 04:55:05;;;;;;;0.63;0.60;;;;;;;27.02;30.68;97196.34;4929497;28;20035;-30
2022/04/15 04:57:31;;;;;;;0.57;0.57;;;;;;;27.00;30.61;97199.91;4929445;28;20082;-29
2022/04/15 04:59:56;;;;;;;0.50;0.50;;;;;;;27.02;30.65;97205.09;4945896;28;20024;-29
2022/04/15 05:02:22;;;;;;;0.55;0.43;;;;;;;27.02;30.69;97207.72;4930782;29;21130;-29
2022/04/15 05:04:48;;;;;;;1.05;0.70;;;;;;;27.01;30.74;97200.78;4930767;28;20696;-33
2022/04/15 05:07:14;;;;;;;0.82;0.60;;;;;;;27.02;30.55;97212.13;4943387;28;20035;-30
2022/04/15 05:09:41;;;;;;;0.75;0.60;;;;;;;27.02;30.55;97209.50;4932444;28;20031;-29
2022/04/15 05:12:08;;;;;;;1.60;0.50;;;;;;;27.01;30.52;97211.31;4928531;28;20023;-32
2022/04/15 05:14:33;;;;;;;0.60;0.40;;;;;;;27.01;30.58;97213.94;4928742;28;20750;-30
2022/04/15 05:16:59;;;;;;;0.63;0.60;;;;;;;27.01;30.62;97216.56;4929328;28;20039;-36
2022/04/15 05:19:24;;;;;;;1.73;0.60;;;;;;;27.02;30.49;97215.63;4930927;28;20039;-31
2022/04/15 05:21:49;;;;;;;1.25;0.70;;;;;;;27.01;30.69;97216.56;4927834;28;20031;-31
2022/04/15 05:24:15;;;;;;;2.90;0.60;;;;;;;27.01;30.48;97216.56;4924043;28;20090;-36
2022/04/15 05:26:40;;;;;;;0.70;0.50;;;;;;;27.01;30.48;97221.81;4921741;28;20035;-32
2022/04/15 05:29:08;;;;;;;0.65;0.50;;;;;;;27.01;30.66;97219.19;4922362;28;20493;-32
2022/04/15 05:31:33;;;;;;;0.73;0.60;;;;;;;27.01;30.57;97224.44;4917712;28;20035;-33
2022/04/15 05:33:58;;;;;;;0.77;0.60;;;;;;;27.02;30.60;97231.41;4918708;28;20035;-31
2022/04/15 05:36:24;;;;;;;1.55;0.40;;;;;;;27.01;30.63;97229.72;4923759;28;20048;-33
2022/04/15 05:38:49;;;;;;;0.30;0.30;;;;;;;27.01;30.60;97232.34;4924273;28;20038;-37
2022/04/15 05:41:15;;;;;;;2.15;0.40;;;;;;;27.00;30.73;97231.47;4918996;28;20051;-28
2022/04/15 05:43:42;;;;;;;1.15;0.45;;;;;;;27.01;30.59;97234.97;4921949;28;20027;-30
2022/04/15 05:46:08;;;;;;;0.75;0.50;;;;;;;27.02;30.65;97241.94;4919861;28;20423;-33
2022/04/15 05:48:33;;;;;;;2.05;0.60;;;;;;;27.02;30.59;97243.69;4919068;28;20036;-35
2022/04/15 05:50:59;;;;;;;0.52;0.45;;;;;;;27.00;30.63;97242.00;4920735;28;20043;-30
2022/04/15 05:53:24;;;;;;;0.77;0.47;;;;;;;27.01;30.55;97245.50;4923314;28;20039;-29
2022/04/15 05:55:50;;;;;;;0.50;0.40;;;;;;;27.00;30.70;97252.53;4923736;28;20110;-34
2022/04/15 05:58:15;;;;;;;1.17;0.73;;;;;;;27.01;30.68;97250.75;4922864;28;20031;-30
2022/04/15 06:00:40;;;;;;;0.40;0.40;;;;;;;27.01;30.64;97256.00;4923509;28;20054;-33
2022/04/15 06:03:09;;;;;;;4.22;0.70;;;;;;;27.01;30.60;97253.38;4924760;28;20506;-31
2022/04/15 06:05:34;;;;;;;0.85;0.55;;;;;;;27.01;30.55;97250.75;4922166;28;20047;-33
2022/04/15 06:08:00;;;;;;;1.00;0.60;;;;;;;27.01;30.49;97258.66;4923479;28;20040;-29
2022/04/15 06:10:25;;;;;;;0.80;0.50;;;;;;;27.02;30.67;97260.34;4922707;28;20141;-31
2022/04/15 06:13:04;;;;;;;2.63;0.60;;;;;;;27.01;30.73;97258.66;4921155;28;20039;-27
2022/04/15 06:15:31;;;;;;;0.75;0.60;;;;;;;27.01;30.42;97258.66;4918881;28;20044;-30
2022/04/15 06:17:57;;;;;;;1.48;0.65;;;;;;;27.01;30.57;97263.91;4922983;28;20098;-30
2022/04/15 06:20:22;;;;;;;0.68;0.60;;;;;;;27.02;30.63;97260.34;4921896;28;20097;-30
2022/04/15 06:22:48;;;;;;;2.05;1.00;;;;;;;27.02;30.59;97260.34;4922272;28;20031;-30
2022/04/15 06:25:13;;;;;;;4.18;2.00;;;;;;;27.02;30.61;97260.34;4918534;28;20044;-35
2022/04/15 06:27:39;;;;;;;7.95;2.25;;;;;;;27.04;30.62;97265.53;4917609;28;20419;-34
2022/04/15 06:30:05;;;;;;;9.23;2.40;;;;;;;27.04;30.64;97269.00;4915661;28;20992;-36
2022/04/15 06:32:31;;;;;;;7.78;2.97;;;;;;;27.05;30.53;97267.22;4922095;28;20043;-31
2022/04/15 06:34:56;;;;;;;6.85;2.80;;;;;;;27.06;30.67;97266.28;4922226;28;20108;-30
2022/04/15 06:37:22;;;;;;;10.18;3.42;;;;;;;27.06;30.69;97267.16;4919779;28;20661;-32
2022/04/15 06:39:50;;;;;;;8.40;3.35;;;;;;;27.07;30.76;97271.47;4916378;28;20042;-37
2022/04/15 06:42:25;;;;;;;10.65;3.65;;;;;;;27.08;30.69;97270.53;4921433;28;20035;-30
2022/04/15 06:44:50;;;;;;;9.63;2.95;;;;;;;27.09;30.94;97267.00;4922452;28;20129;-30
2022/04/15 06:47:16;;;;;;;8.65;3.13;;;;;;;27.08;31.06;97270.53;4921738;28;20072;-34
2022/04/15 06:49:45;;;;;;;14.50;3.38;;;;;;;27.09;31.20;97269.63;4921748;28;20794;-31
2022/04/15 06:52:11;;;;;;;12.60;4.13;;;;;;;27.10;31.36;97268.69;4925659;28;21040;-32
2022/04/15 06:54:36;;;;;;;14.52;4.65;;;;;;;27.11;31.08;97265.13;4924520;28;20937;-29
2022/04/15 06:57:02;;;;;;;13.05;4.95;;;;;;;27.12;31.05;97271.25;4917538;28;20035;-31
2022/04/15 06:59:27;;;;;;;14.80;5.05;;;;;;;27.12;30.78;97269.44;4919566;28;20161;-33
2022/04/15 07:01:55;;;;;;;15.40;5.00;;;;;;;27.15;31.17;97264.97;4922708;28;20090;-33
2022/04/15 07:04:21;;;;;;;12.80;5.18;;;;;;;27.15;31.05;97271.06;4923299;28;20031;-31
2022/04/15 07:06:46;;;;;;;19.15;4.80;;;;;;;27.16;30.98;97266.66;4934037;28;20028;-30
2022/04/15 07:09:12;;;;;;;14.30;5.30;;;;;;;27.17;30.96;97268.38;4921838;28;20529;-32
2022/04/15 07:11:37;;;;;;;11.85;5.28;;;;;;;27.18;30.99;97270.06;4925859;28;20031;-36
2022/04/15 07:14:05;;;;;;;13.98;5.30;;;;;;;27.19;30.83;97269.16;4917136;28;21399;-31
2022/04/15 07:16:30;;;;;;;11.73;5.28;;;;;;;27.21;30.79;97269.91;4915653;28;20122;-35
2022/04/15 07:18:56;;;;;;;10.18;5.15;;;;;;;27.21;30.85;97275.16;4921406;28;20658;-30
2022/04/15 07:21:22;;;;;;;10.43;5.05;;;;;;;27.21;30.77;97270.78;4924723;28;20494;-32
2022/04/15 07:23:48;;;;;;;15.25;5.57;;;;;;;27.22;30.76;97271.59;4921293;28;22136;-31
2022/04/15 07:26:13;;;;;;;10.70;5.07;;;;;;;27.23;30.79;97268.91;4921858;28;20023;-32
2022/04/15 07:28:39;;;;;;;14.95;5.13;;;;;;;27.24;30.71;97281.13;4920584;28;20035;-30
2022/04/15 07:31:05;;;;;;;11.98;5.05;;;;;;;27.24;30.64;97275.03;4919086;28;20031;-31
2022/04/15 07:33:30;;;;;;;12.60;4.63;;;;;;;27.26;30.83;97273.16;4918698;28;20111;-32
2022/04/15 07:35:56;;;;;;;9.70;4.28;;;;;;;27.27;30.82;97274.88;4922373;28;20035;-31
2022/04/15 07:38:22;;;;;;;10.05;4.05;;;;;;;27.28;30.87;97281.84;4919405;28;20106;-31
2022/04/15 07:40:48;;;;;;;9.80;4.63;;;;;;;27.29;30.87;97274.78;4919470;28;20039;-31
2022/04/15 07:43:13;;;;;;;9.38;4.38;;;;;;;27.30;30.95;97274.69;4935155;28;20035;-34
2022/04/15 07:45:39;;;;;;;9.30;4.20;;;;;;;27.32;30.79;97278.13;4922410;28;20477;-30
2022/04/15 07:48:04;;;;;;;8.85;3.85;;;;;;;27.34;30.84;97276.25;4935764;28;20043;-32
2022/04/15 07:50:31;;;;;;;7.85;4.20;;;;;;;27.36;30.56;97274.41;4924180;28;20169;-31
2022/04/15 07:52:57;;;;;;;12.48;4.65;;;;;;;27.36;30.82;97274.41;4933307;28;20861;-30
2022/04/15 07:55:22;;;;;;;9.15;4.10;;;;;;;27.36;30.78;97269.13;4915868;28;20060;-33
2022/04/15 07:57:48;;;;;;;9.48;3.42;;;;;;;27.39;30.81;97271.59;4934129;28;20031;-31
2022/04/15 08:00:14;;;;;;;9.65;4.25;;;;;;;27.41;30.79;97266.25;4916268;28;20023;-31
2022/04/15 08:02:40;;;;;;;10.27;4.38;;;;;;;27.42;30.68;97267.09;4923080;28;20035;-30
2022/04/15 08:05:05;;;;;;;8.18;3.88;;;;;;;27.43;30.68;97274.06;4921905;28;20503;-33
2022/04/15 08:07:30;;;;;;;8.63;4.43;;;;;;;27.44;30.61;97270.50;4918666;28;20122;-34
2022/04/15 08:09:56;;;;;;;12.00;4.70;;;;;;;27.45;30.58;97272.19;4919294;28;20044;-34
2022/04/15 08:12:22;;;;;;;8.43;4.70;;;;;;;27.46;30.48;97279.19;4922219;28;20031;-34
2022/04/15 08:14:47;;;;;;;10.75;4.18;;;;;;;27.46;30.44;97268.66;4917680;28;20873;-34
2022/04/15 08:17:12;;;;;;;8.65;4.20;;;;;;;27.46;30.43;97274.75;4919640;28;20984;-34
2022/04/15 08:19:38;;;;;;;7.68;3.72;;;;;;;27.47;30.49;97279.09;4916608;28;20035;-32
2022/04/15 08:22:04;;;;;;;8.00;3.47;;;;;;;27.48;30.56;97274.66;4922146;28;20826;-32
2022/04/15 08:24:29;;;;;;;10.65;3.28;;;;;;;27.48;30.73;97278.16;4922829;28;20035;-31
2022/04/15 08:26:57;;;;;;;7.22;3.47;;;;;;;27.50;30.57;97280.72;4921123;28;20122;-31
2022/04/15 08:29:22;;;;;;;6.97;3.38;;;;;;;27.50;30.50;97283.34;4918234;28;20043;-30
2022/04/15 08:31:48;;;;;;;7.03;3.17;;;;;;;27.51;30.65;97282.41;4915627;28;20027;-31
2022/04/15 08:34:13;;;;;;;27.23;6.63;;;;;;;27.51;30.27;97279.78;4922908;28;20090;-31
2022/04/15 08:36:38;;;;;;;14.88;9.82;;;;;;;27.46;29.66;97279.19;4927177;28;20038;-31
2022/04/15 08:39:05;;;;;;;13.65;10.48;;;;;;;27.34;29.16;97289.41;4915449;28;20748;-34
2022/04/15 08:41:34;;;;;;;12.95;9.98;;;;;;;27.21;28.90;97288.31;4921567;28;20035;-34
2022/04/15 08:43:59;;;;;;;11.63;10.02;;;;;;;27.08;28.79;97293.38;4923689;28;20159;-31
2022/04/15 08:46:25;;;;;;;13.05;9.80;;;;;;;26.96;28.73;97286.97;4920598;28;20031;-33
2022/04/15 08:48:50;;;;;;;9.60;8.63;;;;;;;26.85;28.91;97293.56;4919795;28;20666;-34
2022/04/15 08:51:16;;;;;;;14.13;9.05;;;;;;;26.78;28.91;97293.94;4935209;28;20024;-29
2022/04/15 08:53:41;;;;;;;14.68;11.02;;;;;;;26.68;28.65;97288.28;4920883;28;20245;-34
2022/04/15 08:56:06;;;;;;;16.15;10.90;;;;;;;26.57;28.84;97292.28;4899294;28;20027;-32
2022/04/15 08:58:32;;;;;;;13.60;11.20;;;;;;;26.46;28.82;97298.06;4930934;28;20031;-35
2022/04/15 09:00:57;;;;;;;14.27;9.52;;;;;;;26.38;28.77;97302.00;4922832;28;20035;-30
2022/04/15 09:03:23;;;;;;;11.15;7.38;;;;;;;26.31;29.05;97297.00;4929853;28;20039;-34
2022/04/15 09:05:51;;;;;;;9.82;8.10;;;;;;;26.30;29.06;97297.94;4924944;28;20039;-32
2022/04/15 09:08:16;;;;;;;10.02;6.75;;;;;;;26.29;29.20;97298.88;4923149;28;20023;-32
2022/04/15 09:10:42;;;;;;;9.15;6.30;;;;;;;26.31;29.09;97298.81;4921366;28;20501;-31
2022/04/15 09:13:18;;;;;;;7.32;5.15;;;;;;;26.34;29.19;97304.75;4909765;28;20024;-33
2022/04/15 09:15:43;;;;;;;7.00;4.47;;;;;;;26.39;29.23;97304.53;4933492;28;20050;-30
2022/04/15 09:18:08;;;;;;;4.47;2.85;;;;;;;26.42;29.30;97300.91;4922791;28;20039;-31
2022/04/15 09:20:34;;;;;;;6.30;2.92;;;;;;;26.46;29.20;97305.09;4928192;28;20027;-31
2022/04/15 09:23:09;;;;;;;8.60;2.78;;;;;;;26.50;29.42;97298.75;4927024;28;20042;-33
2022/04/15 09:25:35;;;;;;;5.15;2.70;;;;;;;26.56;29.40;97302.88;4926019;28;20040;-31
2022/04/15 09:28:00;;;;;;;5.20;2.70;;;;;;;26.60;29.44;97296.53;4925189;28;20036;-32
2022/04/15 09:30:36;;;;;;;4.75;2.63;;;;;;;26.65;29.66;97301.59;4927493;28;20039;-35
2022/04/15 09:33:02;;;;;;;5.45;2.92;;;;;;;26.68;29.40;97304.03;4925235;28;20035;-33
2022/04/15 09:35:27;;;;;;;4.43;2.67;;;;;;;26.72;29.44;97300.34;4925177;28;22107;-31
2022/04/15 09:37:53;;;;;;;6.80;2.72;;;;;;;26.74;29.39;97299.34;4925262;28;20031;-31
2022/04/15 09:40:22;;;;;;;8.00;2.45;;;;;;;26.78;29.43;97300.06;4922416;28;20042;-33
2022/04/15 09:42:51;;;;;;;6.22;2.47;;;;;;;26.83;29.43;97302.44;4923597;28;20035;-33
2022/04/15 09:45:25;;;;;;;8.70;2.22;;;;;;;26.84;29.42;97299.75;4923474;28;20032;-33
2022/04/15 09:47:52;;;;;;;3.70;2.30;;;;;;;26.89;29.46;97307.44;4928115;28;20023;-31
2022/04/15 09:50:27;;;;;;;8.18;2.55;;;;;;;26.90;29.45;97293.34;4924673;28;20057;-31
2022/04/15 09:52:54;;;;;;;6.57;3.00;;;;;;;26.96;29.55;97297.47;4922012;28;20046;-30
2022/04/15 09:55:20;;;;;;;10.40;3.15;;;;;;;26.98;29.60;97300.88;4919929;28;20144;-32
2022/04/15 09:57:49;;;;;;;8.65;2.80;;;;;;;27.04;29.57;97300.56;4924629;28;20031;-30
2022/04/15 10:00:15;;;;;;;8.80;3.20;;;;;;;27.06;29.68;97293.44;4924723;28;20043;-32
2022/04/15 10:02:42;;;;;;;8.90;2.90;;;;;;;27.10;29.57;97294.13;4922905;28;20051;-31
2022/04/15 10:05:08;;;;;;;11.88;3.22;;;;;;;27.13;29.64;97289.59;4923119;28;20027;-32
2022/04/15 10:07:37;;;;;;;8.85;2.92;;;;;;;27.15;29.80;97292.13;4922258;28;20031;-32
2022/04/15 10:10:02;;;;;;;13.15;3.28;;;;;;;27.19;29.61;97291.03;4923320;28;20043;-31
2022/04/15 10:12:35;;;;;;;9.00;3.10;;;;;;;27.21;29.74;97285.69;4923924;28;20123;-34
2022/04/15 10:15:01;;;;;;;11.18;3.35;;;;;;;27.24;29.69;97288.19;4908864;28;20566;-39
2022/04/15 10:17:27;;;;;;;8.70;3.17;;;;;;;27.25;29.70;97289.88;4927251;28;20042;-31
2022/04/15 10:19:52;;;;;;;9.60;3.15;;;;;;;27.27;29.62;97291.50;4940992;28;20054;-33
2022/04/15 10:22:17;;;;;;;9.70;3.17;;;;;;;27.30;29.68;97294.91;4927224;28;20601;-31
2022/04/15 10:24:43;;;;;;;8.27;2.95;;;;;;;27.31;29.92;97297.44;4926764;28;20035;-30
2022/04/15 10:27:11;;;;;;;9.02;2.90;;;;;;;27.33;29.79;97285.06;4926788;28;20027;-35
2022/04/15 10:29:36;;;;;;;7.50;2.80;;;;;;;27.35;29.82;97293.72;4936413;28;20016;-32
2022/04/15 10:32:12;;;;;;;6.80;3.05;;;;;;;27.37;29.81;97285.75;4923900;28;20390;-31
2022/04/15 10:34:43;;;;;;;11.30;3.67;;;;;;;27.38;29.84;97288.31;4928105;28;20147;-34
2022/04/15 10:37:09;;;;;;;6.15;2.83;;;;;;;27.38;29.90;97285.69;4925876;28;20054;-31
2022/04/15 10:39:45;;;;;;;12.75;2.83;;;;;;;27.41;29.98;97295.19;4926080;28;20043;-31
2022/04/15 10:42:17;;;;;;;8.73;2.97;;;;;;;27.42;30.06;97285.53;4941296;28;20059;-30
2022/04/15 10:44:44;;;;;;;7.15;2.80;;;;;;;27.43;29.88;97288.09;4923178;28;20151;-30
2022/04/15 10:47:13;;;;;;;9.02;3.00;;;;;;;27.44;30.05;97296.81;4941762;28;20032;-32
2022/04/15 10:50:01;;;;;;;5.70;2.33;;;;;;;27.46;30.09;97292.34;4936441;28;20036;-32
2022/04/15 10:52:27;;;;;;;6.32;2.58;;;;;;;27.47;30.18;97297.53;4921804;28;20863;-31
2022/04/15 10:55:02;;;;;;;7.40;2.63;;;;;;;27.48;30.14;97303.63;4927316;28;20031;-32
2022/04/15 10:57:41;;;;;;;6.75;2.85;;;;;;;27.50;30.12;97293.88;4925737;28;20150;-33
2022/04/15 11:02:56;;;;;;;7.70;2.90;;;;;;;27.52;30.19;97299.91;4926512;28;20103;-33
2022/04/15 11:05:43;;;;;;;3.92;2.13;;;;;;;27.52;30.23;97298.13;4925850;28;20874;-30
2022/04/15 11:08:13;;;;;;;4.60;2.40;;;;;;;27.55;30.11;97305.00;4924465;28;20055;-32
2022/04/15 11:11:03;;;;;;;6.20;2.67;;;;;;;27.56;30.19;97297.94;4926091;28;20023;-36
2022/04/15 11:13:39;;;;;;;5.00;2.45;;;;;;;27.57;30.26;97297.88;4938353;28;20035;-31
2022/04/15 11:16:10;;;;;;;6.88;2.55;;;;;;;27.58;30.41;97294.31;4924517;28;20091;-38
2022/04/15 11:19:04;;;;;;;5.25;2.50;;;;;;;27.59;30.41;97301.28;4926751;28;20116;-33
2022/04/15 11:21:32;;;;;;;6.90;2.38;;;;;;;27.60;30.33;97297.72;4919853;28;20034;-33
2022/04/15 11:24:04;;;;;;;3.75;2.30;;;;;;;27.61;30.41;97288.91;4926444;28;20058;-30
2022/04/15 11:26:30;;;;;;;5.32;2.40;;;;;;;27.62;30.19;97290.59;4946493;28;20063;-33
2022/04/15 11:28:59;;;;;;;5.38;2.40;;;;;;;27.63;30.47;97292.34;4929663;28;20468;-37
2022/04/15 11:31:29;;;;;;;5.05;2.40;;;;;;;27.63;30.60;97289.69;4933711;28;20086;-36